Verkhne-Penzhino, Russia
Current Conditions -  °F | °C
As of 1:00 PM on Saturday 25 Oct 2014 (Local Time) from UHMM Reporting Station
Overcast Overcast  
Wind Chill:   Ceiling: 20000
Heat Index:   Visibility: 6mi
Dew Point: -2°   Wind: 0mph
Humidity: 72%   Direction: NA
Pressure: 29.68"   Gusts: NA
Location:  64.22°N, 164.23°E
Report Text: UHMM 250100Z 00000MPS 9999 FEW100 OVC200 M15/M19 Q1005 NOSIGRMK QFE739 88850545
Loading
Personal Weather Stations






























Interactive Weather Map
Tropical Storm Tracking
New forecast layout! Learn more

10-Day Weather Forecast

Advertisements
Track Severe Weather on mobile